createdAt,value
2019-02-16T00:00:48.653Z,42.40
2019-02-16T00:03:19.988Z,42.67
2019-02-16T00:05:49.782Z,41.30
2019-02-16T00:08:19.570Z,44.63
2019-02-16T00:10:49.435Z,43.60
2019-02-16T00:13:19.159Z,47.63
2019-02-16T00:15:48.747Z,43.00
2019-02-16T00:18:18.226Z,45.60
2019-02-16T00:20:48.080Z,41.80
2019-02-16T00:23:17.605Z,39.67
2019-02-16T00:25:47.221Z,43.13
2019-02-16T00:28:16.785Z,45.03
2019-02-16T00:30:46.724Z,45.77
2019-02-16T00:33:16.361Z,42.93
2019-02-16T00:35:46.127Z,41.43
2019-02-16T00:38:15.947Z,39.57
2019-02-16T00:40:45.521Z,39.90
2019-02-16T00:43:15.176Z,39.63
2019-02-16T00:45:44.853Z,43.57
2019-02-16T00:48:14.942Z,39.13
2019-02-16T00:50:44.526Z,34.87
2019-02-16T00:53:15.223Z,37.90
2019-02-16T00:55:45.236Z,37.13
2019-02-16T00:58:15.010Z,39.27
2019-02-16T01:00:44.856Z,40.77
2019-02-16T01:03:14.787Z,40.17
2019-02-16T01:05:44.415Z,41.77
2019-02-16T01:08:14.306Z,39.00
2019-02-16T01:10:43.907Z,37.97
2019-02-16T01:13:13.587Z,41.10
2019-02-16T01:15:43.389Z,42.17
2019-02-16T01:18:13.052Z,37.03
2019-02-16T01:20:42.732Z,38.73
2019-02-16T01:23:12.551Z,38.53
2019-02-16T01:25:42.367Z,44.77
2019-02-16T01:28:11.962Z,38.67
2019-02-16T01:30:42.920Z,36.50
2019-02-16T01:33:12.586Z,37.13
2019-02-16T01:35:42.224Z,38.57
2019-02-16T01:38:11.884Z,34.13
2019-02-16T01:40:41.585Z,33.77
2019-02-16T01:43:11.498Z,33.63
2019-02-16T01:45:41.060Z,30.40
2019-02-16T01:48:10.849Z,34.03
2019-02-16T01:50:40.875Z,31.60
2019-02-16T01:53:10.527Z,30.87
2019-02-16T01:55:40.061Z,32.37
2019-02-16T01:58:09.638Z,27.67
2019-02-16T02:00:39.136Z,33.27
2019-02-16T02:03:08.771Z,31.07
2019-02-16T02:05:38.439Z,30.30
2019-02-16T02:08:07.992Z,28.73
2019-02-16T02:10:37.584Z,32.27
2019-02-16T02:13:07.199Z,27.17
2019-02-16T02:15:36.784Z,31.00
2019-02-16T02:18:06.398Z,28.00
2019-02-16T02:20:36.022Z,28.73
2019-02-16T02:23:05.872Z,26.53
2019-02-16T02:25:35.464Z,34.53
2019-02-16T02:28:05.325Z,28.73
2019-02-16T02:30:34.890Z,25.33
2019-02-16T02:33:04.478Z,26.73
2019-02-16T02:35:34.033Z,24.80
2019-02-16T02:38:03.628Z,19.80
2019-02-16T02:40:33.170Z,23.03
2019-02-16T02:43:02.849Z,23.27
2019-02-16T02:45:32.605Z,25.40
2019-02-16T02:48:02.188Z,26.13
2019-02-16T02:50:31.944Z,27.37
2019-02-16T02:53:01.540Z,27.40
2019-02-16T02:55:32.104Z,22.77
2019-02-16T02:58:01.972Z,24.93
2019-02-16T03:00:31.608Z,28.07
2019-02-16T03:03:01.276Z,24.40
2019-02-16T03:05:32.079Z,25.73
2019-02-16T03:08:01.879Z,27.20
2019-02-16T03:10:31.511Z,27.03
2019-02-16T03:13:01.268Z,26.00
2019-02-16T03:15:30.794Z,22.20
2019-02-16T03:18:01.679Z,26.03
2019-02-16T03:20:31.360Z,25.97
2019-02-16T03:23:14.570Z,24.53
2019-02-16T03:26:25.475Z,24.90
2019-02-16T03:29:21.616Z,24.50
2019-02-16T03:32:43.818Z,22.80
2019-02-16T03:36:04.846Z,23.83
2019-02-16T03:38:52.559Z,20.83
2019-02-16T03:41:22.188Z,24.20
2019-02-16T03:43:51.920Z,27.47
2019-02-16T03:46:22.847Z,23.57
2019-02-16T03:48:52.498Z,25.97
2019-02-16T03:51:23.557Z,24.87
2019-02-16T03:53:53.548Z,25.00
2019-02-16T03:56:23.330Z,25.23
2019-02-16T03:58:53.091Z,22.70
2019-02-16T04:01:22.837Z,23.87
2019-02-16T04:03:52.473Z,26.43
2019-02-16T04:06:22.204Z,26.00
2019-02-16T04:08:51.858Z,24.30
2019-02-16T04:11:21.569Z,24.13
2019-02-16T04:13:51.556Z,23.80
2019-02-16T04:16:21.182Z,22.53
2019-02-16T04:18:50.778Z,28.73
2019-02-16T04:21:20.461Z,28.73
2019-02-16T04:23:52.935Z,28.60
2019-02-16T04:26:22.567Z,23.77
2019-02-16T04:28:52.276Z,22.30
2019-02-16T04:31:21.899Z,23.33
2019-02-16T04:33:51.534Z,26.40
2019-02-16T04:36:21.242Z,27.10
2019-02-16T04:38:51.181Z,23.70
2019-02-16T04:41:21.395Z,23.60
2019-02-16T04:43:51.119Z,22.23
2019-02-16T04:46:20.711Z,21.53
2019-02-16T04:48:50.308Z,28.57
2019-02-16T04:51:20.120Z,24.97
2019-02-16T04:53:49.732Z,27.00
2019-02-16T04:56:19.427Z,19.50
2019-02-16T04:58:49.997Z,20.47
2019-02-16T05:01:19.729Z,24.70
2019-02-16T05:03:49.446Z,20.37
2019-02-16T05:06:19.297Z,20.27
2019-02-16T05:08:48.943Z,25.13
2019-02-16T05:11:21.722Z,25.00
2019-02-16T05:13:51.356Z,26.17
2019-02-16T05:16:20.991Z,24.33
2019-02-16T05:18:50.654Z,23.83
2019-02-16T05:21:20.360Z,23.27
2019-02-16T05:23:50.312Z,21.77
2019-02-16T05:26:19.944Z,30.03
2019-02-16T05:28:49.736Z,19.30
2019-02-16T05:31:19.598Z,24.60
2019-02-16T05:33:49.367Z,26.90
2019-02-16T05:36:19.235Z,22.97
2019-02-16T05:38:48.782Z,22.93
2019-02-16T05:41:18.322Z,21.97
2019-02-16T05:43:48.196Z,22.43
2019-02-16T05:46:17.964Z,24.03
2019-02-16T05:48:47.766Z,20.40
2019-02-16T05:51:17.412Z,21.17
2019-02-16T05:53:47.018Z,22.30
2019-02-16T05:56:16.717Z,19.83
2019-02-16T05:58:47.611Z,22.60
2019-02-16T06:01:17.115Z,21.17
2019-02-16T06:03:46.687Z,28.70
2019-02-16T06:06:16.302Z,23.00
2019-02-16T06:08:46.203Z,20.70
2019-02-16T06:11:15.817Z,22.10
2019-02-16T06:13:45.419Z,20.97
2019-02-16T06:16:14.962Z,22.50
2019-02-16T06:18:44.668Z,30.23
2019-02-16T06:21:14.344Z,26.53
2019-02-16T06:23:43.914Z,26.03
2019-02-16T06:26:13.448Z,38.13
2019-02-16T06:28:43.036Z,40.30
2019-02-16T06:31:12.698Z,42.23
2019-02-16T06:33:42.355Z,39.80
2019-02-16T06:36:20.967Z,32.53
2019-02-16T06:38:50.726Z,29.50
2019-02-16T06:41:20.321Z,28.50
2019-02-16T06:43:49.952Z,34.07
2019-02-16T06:46:20.263Z,34.17
2019-02-16T06:48:49.875Z,35.10
2019-02-16T06:51:19.877Z,31.00
2019-02-16T06:53:49.490Z,28.93
2019-02-16T06:56:44.117Z,28.43
2019-02-16T06:59:14.054Z,26.20
2019-02-16T07:01:43.879Z,29.43
2019-02-16T07:04:13.572Z,30.13
2019-02-16T07:06:43.396Z,30.73
2019-02-16T07:09:13.159Z,27.07
2019-02-16T07:11:42.971Z,27.17
2019-02-16T07:14:12.588Z,27.77
2019-02-16T07:17:00.307Z,27.53
2019-02-16T07:19:51.577Z,25.97
2019-02-16T07:22:21.279Z,26.00
2019-02-16T07:24:51.159Z,26.07
2019-02-16T07:27:20.735Z,20.93
2019-02-16T07:29:50.357Z,18.00
2019-02-16T07:32:20.009Z,21.73
2019-02-16T07:34:49.612Z,20.27
2019-02-16T07:37:19.514Z,18.97
2019-02-16T07:39:49.118Z,19.37
2019-02-16T07:42:18.779Z,18.17
2019-02-16T07:44:56.349Z,18.17
2019-02-16T07:47:41.781Z,19.10
2019-02-16T07:50:36.630Z,17.80
2019-02-16T07:53:31.657Z,19.07
2019-02-16T07:56:38.832Z,18.07
2019-02-16T07:59:22.203Z,17.67
2019-02-16T08:02:13.985Z,15.83
2019-02-16T08:04:51.594Z,20.87
2019-02-16T08:07:32.864Z,16.47
2019-02-16T08:10:20.284Z,16.87
2019-02-16T08:13:12.037Z,16.07
2019-02-16T08:16:07.283Z,15.83
2019-02-16T08:18:53.853Z,16.10
2019-02-16T08:21:36.782Z,16.33
2019-02-16T08:24:25.761Z,16.97
2019-02-16T08:27:14.636Z,15.87
2019-02-16T08:30:05.254Z,16.77
2019-02-16T08:33:03.444Z,17.87
2019-02-16T08:35:54.920Z,17.37
2019-02-16T08:38:36.079Z,14.27
2019-02-16T08:41:37.296Z,16.60
2019-02-16T08:44:30.937Z,19.33
2019-02-16T08:47:19.926Z,15.80
2019-02-16T08:50:08.024Z,17.43
2019-02-16T08:53:12.044Z,18.27
2019-02-16T08:55:59.974Z,16.67
2019-02-16T08:58:48.024Z,17.97
2019-02-16T09:01:52.180Z,17.57
2019-02-16T09:04:31.719Z,17.50
2019-02-16T09:07:28.108Z,16.90
2019-02-16T09:10:11.821Z,15.70
2019-02-16T09:12:59.849Z,16.80
2019-02-16T09:15:54.546Z,14.47
2019-02-16T09:19:01.935Z,13.07
2019-02-16T09:21:45.152Z,16.37
2019-02-16T09:24:40.946Z,12.37
2019-02-16T09:27:28.385Z,12.30
2019-02-16T09:30:23.027Z,10.87
2019-02-16T09:33:05.602Z,14.23
2019-02-16T09:35:44.012Z,13.95
2019-02-16T09:38:30.193Z,13.50
2019-02-16T09:41:14.764Z,14.70
2019-02-16T09:44:09.076Z,14.87
2019-02-16T09:46:56.282Z,13.80
2019-02-16T09:49:48.089Z,9.85
2019-02-16T09:52:45.973Z,14.25
2019-02-16T09:55:33.865Z,14.90
2019-02-16T09:58:19.696Z,11.97
2019-02-16T10:01:33.707Z,12.88
2019-02-16T10:04:25.574Z,10.72
2019-02-16T10:07:12.633Z,10.00
2019-02-16T10:10:07.887Z,9.90
2019-02-16T10:12:51.964Z,12.40
2019-02-16T10:15:45.020Z,9.10
2019-02-16T10:18:40.894Z,12.40
2019-02-16T10:21:27.093Z,11.25
2019-02-16T10:24:18.025Z,9.48
2019-02-16T10:27:08.113Z,13.25
2019-02-16T10:30:00.809Z,9.65
2019-02-16T10:32:48.806Z,9.10
2019-02-16T10:35:44.135Z,9.00
2019-02-16T10:38:32.935Z,9.75
2019-02-16T10:41:33.970Z,10.70
2019-02-16T10:44:19.113Z,6.20
2019-02-16T10:47:20.194Z,6.67
2019-02-16T10:50:15.162Z,9.90
2019-02-16T10:53:06.812Z,11.48
2019-02-16T10:56:01.838Z,17.37
2019-02-16T10:58:50.158Z,9.28
2019-02-16T11:01:32.420Z,7.28
2019-02-16T11:04:11.535Z,11.12
2019-02-16T11:06:57.865Z,10.55
2019-02-16T11:09:36.657Z,7.15
2019-02-16T11:12:20.773Z,17.92
2019-02-16T11:15:08.724Z,9.45
2019-02-16T11:18:03.701Z,9.80
2019-02-16T11:20:46.281Z,8.10
2019-02-16T11:23:38.049Z,5.65
2019-02-16T11:26:25.573Z,13.00
2019-02-16T11:29:14.048Z,7.85
2019-02-16T11:31:58.461Z,8.63
2019-02-16T11:34:45.073Z,9.95
2019-02-16T11:37:20.240Z,7.72
2019-02-16T11:40:05.761Z,8.85
2019-02-16T11:42:42.623Z,9.93
2019-02-16T11:45:22.989Z,9.98
2019-02-16T11:48:19.121Z,8.25
2019-02-16T11:50:55.085Z,6.42
2019-02-16T11:53:35.013Z,10.60
2019-02-16T11:56:11.798Z,7.75
2019-02-16T11:58:52.214Z,6.30
2019-02-16T12:01:40.934Z,6.83
2019-02-16T12:04:28.813Z,9.60
2019-02-16T12:07:07.633Z,5.30
2019-02-16T12:10:02.155Z,5.62
2019-02-16T12:12:49.794Z,13.30
2019-02-16T12:15:26.604Z,14.40
2019-02-16T12:18:18.272Z,12.55
2019-02-16T12:20:57.776Z,7.70
2019-02-16T12:23:52.471Z,6.87
2019-02-16T12:26:29.995Z,9.38
2019-02-16T12:29:17.599Z,6.60
2019-02-16T12:32:02.862Z,6.70
2019-02-16T12:34:51.768Z,6.28
2019-02-16T12:37:45.987Z,3.15
2019-02-16T12:40:28.169Z,5.72
2019-02-16T12:43:06.713Z,3.77
2019-02-16T12:45:54.179Z,11.15
2019-02-16T12:48:51.857Z,11.63
2019-02-16T12:51:37.210Z,4.62
2019-02-16T12:54:35.737Z,4.72
2019-02-16T12:57:23.163Z,9.48
2019-02-16T13:00:04.350Z,10.72
2019-02-16T13:02:52.075Z,6.17
2019-02-16T13:05:33.769Z,6.70
2019-02-16T13:08:22.571Z,8.33
2019-02-16T13:10:59.727Z,10.98
2019-02-16T13:13:39.071Z,4.83
2019-02-16T13:16:27.590Z,6.58
2019-02-16T13:19:15.305Z,4.33
2019-02-16T13:22:05.708Z,8.33
2019-02-16T13:24:53.205Z,5.60
2019-02-16T13:27:48.612Z,4.97
2019-02-16T13:30:27.268Z,5.65
2019-02-16T13:33:28.025Z,4.90
2019-02-16T13:36:15.124Z,5.00
2019-02-16T13:38:54.247Z,11.03
2019-02-16T13:41:46.770Z,9.73
2019-02-16T13:44:23.246Z,10.13
2019-02-16T13:47:05.568Z,8.28
2019-02-16T13:49:41.289Z,3.62
2019-02-16T13:52:19.342Z,3.10
2019-02-16T13:55:07.989Z,6.28
2019-02-16T13:58:09.051Z,60.23
2019-02-16T14:00:43.804Z,5.45
2019-02-16T14:03:32.518Z,7.40
2019-02-16T14:06:19.967Z,4.12
2019-02-16T14:09:24.023Z,4.50
2019-02-16T14:12:11.660Z,6.60
2019-02-16T14:15:00.375Z,5.15
2019-02-16T14:17:38.759Z,34.10
2019-02-16T14:20:09.639Z,17.50
2019-02-16T14:22:39.349Z,57.03
2019-02-16T14:25:12.677Z,8.00
2019-02-16T14:27:42.503Z,5.92
2019-02-16T14:30:12.318Z,5.25
2019-02-16T14:32:45.132Z,3.87
2019-02-16T14:35:14.906Z,5.12
2019-02-16T14:37:54.154Z,4.90
2019-02-16T14:40:27.055Z,4.10
2019-02-16T14:42:56.812Z,8.53
2019-02-16T14:45:26.542Z,7.62
2019-02-16T14:47:57.145Z,7.10
2019-02-16T14:50:27.101Z,8.23
2019-02-16T14:52:57.296Z,6.45
2019-02-16T14:55:27.469Z,5.97
2019-02-16T14:57:57.251Z,6.83
2019-02-16T15:00:27.065Z,8.13
2019-02-16T15:02:56.929Z,10.38
2019-02-16T15:05:26.839Z,6.85
2019-02-16T15:07:56.915Z,4.90
2019-02-16T15:10:26.921Z,5.08
2019-02-16T15:12:56.751Z,5.20
2019-02-16T15:15:26.660Z,3.95
2019-02-16T15:17:56.496Z,5.12
2019-02-16T15:20:26.261Z,8.20
2019-02-16T15:22:57.359Z,4.78
2019-02-16T15:25:27.584Z,4.33
2019-02-16T15:27:58.002Z,7.85
2019-02-16T15:30:27.786Z,4.20
2019-02-16T15:32:57.768Z,8.20
2019-02-16T15:35:31.819Z,4.70
2019-02-16T15:38:01.573Z,8.50
2019-02-16T15:40:31.603Z,4.30
2019-02-16T15:43:01.377Z,5.30
2019-02-16T15:45:31.129Z,7.80
2019-02-16T15:48:00.999Z,7.65
2019-02-16T15:50:30.869Z,5.00
2019-02-16T15:53:00.815Z,9.35
2019-02-16T15:55:30.698Z,7.70
2019-02-16T15:58:00.448Z,5.45
2019-02-16T16:00:31.513Z,6.62
2019-02-16T16:03:01.259Z,16.90
2019-02-16T16:05:33.807Z,6.62
2019-02-16T16:08:21.657Z,9.55
2019-02-16T16:11:04.136Z,13.10
2019-02-16T16:14:01.176Z,11.83
2019-02-16T16:16:36.847Z,17.75
2019-02-16T16:19:31.385Z,9.45
2019-02-16T16:22:17.329Z,13.93
2019-02-16T16:24:58.121Z,8.10
2019-02-16T16:27:34.650Z,9.73
2019-02-16T16:30:20.377Z,7.40
2019-02-16T16:33:08.034Z,10.87
2019-02-16T16:35:43.718Z,12.53
2019-02-16T16:38:41.785Z,13.03
2019-02-16T16:41:26.110Z,15.27
2019-02-16T16:44:14.613Z,18.03
2019-02-16T16:47:17.417Z,11.67
2019-02-16T16:49:55.000Z,12.27
2019-02-16T16:52:34.754Z,13.87
2019-02-16T16:55:12.572Z,17.13
2019-02-16T16:58:13.815Z,17.73
2019-02-16T17:01:02.832Z,12.60
2019-02-16T17:03:49.517Z,17.03
2019-02-16T17:06:52.930Z,28.57
2019-02-16T17:09:38.247Z,18.30
2019-02-16T17:12:45.272Z,16.20
2019-02-16T17:15:34.357Z,18.30
2019-02-16T17:18:11.053Z,21.17
2019-02-16T17:20:57.967Z,16.03
2019-02-16T17:23:46.664Z,15.23
2019-02-16T17:26:37.850Z,13.73
2019-02-16T17:29:22.601Z,10.73
2019-02-16T17:32:08.410Z,13.57
2019-02-16T17:34:56.007Z,12.63
2019-02-16T17:37:38.504Z,11.10
2019-02-16T17:40:20.844Z,11.63
2019-02-16T17:43:08.763Z,26.27
2019-02-16T17:46:00.331Z,13.40
2019-02-16T17:48:56.170Z,17.70
2019-02-16T17:51:47.111Z,18.37
2019-02-16T17:54:29.948Z,13.60
2019-02-16T17:57:18.368Z,15.60
2019-02-16T17:59:57.346Z,13.03
2019-02-16T18:02:53.284Z,15.43
2019-02-16T18:05:35.752Z,14.13
2019-02-16T18:08:23.293Z,14.50
2019-02-16T18:11:07.029Z,15.53
2019-02-16T18:14:04.992Z,16.30
2019-02-16T18:16:53.192Z,25.00
2019-02-16T18:19:28.094Z,20.43
2019-02-16T18:22:03.565Z,21.27
2019-02-16T18:24:40.936Z,20.20
2019-02-16T18:27:25.644Z,21.80
2019-02-16T18:30:21.060Z,24.17
2019-02-16T18:33:09.082Z,36.73
2019-02-16T18:35:51.822Z,29.67
2019-02-16T18:38:29.964Z,32.27
2019-02-16T18:41:24.775Z,21.93
2019-02-16T18:44:12.105Z,29.10
2019-02-16T18:46:52.869Z,27.63
2019-02-16T18:49:37.043Z,24.00
2019-02-16T18:52:24.615Z,26.03
2019-02-16T18:55:12.192Z,28.70
2019-02-16T18:58:07.381Z,28.17
2019-02-16T19:00:43.682Z,34.90
2019-02-16T19:03:24.239Z,27.07
2019-02-16T19:06:15.839Z,35.13
2019-02-16T19:08:58.525Z,27.40
2019-02-16T19:11:50.160Z,28.67
2019-02-16T19:14:44.915Z,26.77
2019-02-16T19:17:39.477Z,38.43
2019-02-16T19:20:27.184Z,30.37
2019-02-16T19:23:18.823Z,45.63
2019-02-16T19:26:20.162Z,51.90
2019-02-16T19:29:09.075Z,59.53
2019-02-16T19:31:56.681Z,53.33
2019-02-16T19:34:46.560Z,61.57
2019-02-16T19:37:28.788Z,51.17
2019-02-16T19:40:17.417Z,46.70
2019-02-16T19:43:06.981Z,39.93
2019-02-16T19:45:44.408Z,34.70
2019-02-16T19:48:51.611Z,33.80
2019-02-16T19:51:40.239Z,42.90
2019-02-16T19:54:41.157Z,40.73
2019-02-16T19:57:26.861Z,30.90
2019-02-16T20:00:11.419Z,24.63
2019-02-16T20:02:51.841Z,38.77
2019-02-16T20:05:32.576Z,39.33
2019-02-16T20:08:30.800Z,25.17
2019-02-16T20:11:13.865Z,29.47
2019-02-16T20:13:57.059Z,26.40
2019-02-16T20:16:36.254Z,26.63
2019-02-16T20:19:23.859Z,28.63
2019-02-16T20:22:20.860Z,38.00
2019-02-16T20:25:09.499Z,39.13
2019-02-16T20:27:57.052Z,40.17
2019-02-16T20:31:00.942Z,38.27
2019-02-16T20:33:52.342Z,35.97
2019-02-16T20:36:35.956Z,36.13
2019-02-16T20:39:15.187Z,40.23
2019-02-16T20:42:13.190Z,40.60
2019-02-16T20:44:51.327Z,19.97
2019-02-16T20:47:28.613Z,25.37
2019-02-16T20:50:35.931Z,22.80
2019-02-16T20:53:24.368Z,22.90
2019-02-16T20:56:23.147Z,28.73
2019-02-16T20:59:10.816Z,28.87
2019-02-16T21:02:05.648Z,31.43
2019-02-16T21:05:03.686Z,28.13
2019-02-16T21:08:03.363Z,26.77
2019-02-16T21:10:49.841Z,29.20
2019-02-16T21:13:27.576Z,27.60
2019-02-16T21:28:13.163Z,25.10
2019-02-16T21:31:00.673Z,24.20
2019-02-16T21:33:45.227Z,25.30
2019-02-16T21:36:21.183Z,29.23
2019-02-16T21:39:03.520Z,25.60
2019-02-16T21:41:51.693Z,25.27
2019-02-16T21:44:26.815Z,18.87
2019-02-16T21:47:08.657Z,16.87
2019-02-16T21:49:49.553Z,26.30
2019-02-16T21:52:28.372Z,36.70
2019-02-16T21:55:06.868Z,24.30
2019-02-16T21:58:08.073Z,27.83
2019-02-16T22:00:52.188Z,28.67
2019-02-16T22:18:47.260Z,53.20
2019-02-16T22:21:19.974Z,55.57
2019-02-16T22:23:50.583Z,58.90
2019-02-16T22:26:21.151Z,79.30
2019-02-16T22:28:51.757Z,81.40
2019-02-16T22:31:22.064Z,69.47
2019-02-16T22:33:58.408Z,55.33
2019-02-16T22:36:28.830Z,56.10
2019-02-16T22:38:59.280Z,53.37
2019-02-16T22:41:29.589Z,53.23
2019-02-16T22:44:02.302Z,54.97
2019-02-16T22:46:32.104Z,54.07
2019-02-16T22:49:05.028Z,58.40
2019-02-16T22:51:35.393Z,61.27
2019-02-16T22:54:05.736Z,62.60
2019-02-16T22:56:36.315Z,58.03
2019-02-16T22:59:06.976Z,57.80
2019-02-16T23:01:37.324Z,59.37
2019-02-16T23:04:07.749Z,73.50
2019-02-16T23:06:38.372Z,89.37
2019-02-16T23:09:21.270Z,67.23
2019-02-16T23:11:51.512Z,72.17
2019-02-16T23:14:24.058Z,61.80
2019-02-16T23:16:53.924Z,51.20
2019-02-16T23:19:25.496Z,50.10
2019-02-16T23:21:55.823Z,52.57
2019-02-16T23:24:26.215Z,54.70
2019-02-16T23:26:56.578Z,54.80
2019-02-16T23:29:26.927Z,53.73
2019-02-16T23:31:58.361Z,52.87
2019-02-16T23:34:28.969Z,49.47
2019-02-16T23:36:59.325Z,56.67
2019-02-16T23:39:29.558Z,53.57
2019-02-16T23:41:59.924Z,63.07
2019-02-16T23:44:30.282Z,43.27
2019-02-16T23:47:00.652Z,42.27
2019-02-16T23:49:31.068Z,47.50
2019-02-16T23:52:01.475Z,41.50
2019-02-16T23:54:31.790Z,39.87
2019-02-16T23:57:02.169Z,39.83
2019-02-16T23:59:32.785Z,36.03
